Thorn Hill, TN

10:58 AM EST on December 06, 2016 (GMT -0500)
Bean Station Cherokee Lake | | Change Station

Elev 1125 ft 36.28 °N, 83.38 °W | Updated 4 seconds ago

Light Rain
Light Rain
49.8 °F
Feels Like 50 °F
N
0.9
Wind Variable Wind from ESE
Gusts 2.5 mph

Today
High -- | Low -- °F
--% Chance of Precip.
Yesterday
High -- | Low -- °F
Precip. -- in
Pressure 29.73 in
Visibility 9.0 miles
Clouds Clear
Windchill 50 °F
Dew Point 50 °F
Humidity 99%
Rainfall 1.09 in
Snow Depth Not available.
7:31 AM 5:18 PM
Waxing Crescent, 43% visible
METAR K0VG 061530Z AUTO 06007KT 9SM -RA CLR 09/09 A2973 RMK AO2
Pressure 29.73 in
Visibility 9.0 miles
Clouds Clear
Windchill 50 °F
Dew Point 50 °F
Humidity 99%
Rainfall 1.09 in
Snow Depth Not available.
7:31 AM 5:18 PM
Waxing Crescent, 43% visible
METAR K0VG 061530Z AUTO 06007KT 9SM -RA CLR 09/09 A2973 RMK AO2

10-Day Weather Forecast

Almanac

Astronomy

Dec. 06, 2016 Rise Set
Actual Time
Civil Twilight
Nautical Twilight
Astronomical Twilight
Moon
Length of Visible Light
Length of Day
Tomorrow will be .
, % of the Moon is Illuminated

Today's Extremes

State Highs State Lows

Community

WunderPhotos

Upload Photos

1,955,959 photos uploaded!

WunderBlog® & News

Nearby

Air Quality

  Air Quality AQ Index Pollutant
Not available.

Snow Depth

Station Depth Elevation

Earthquake Activity

City Distance Mag. Time & Date
Minimum magnitude displayed is 2.5.

Coastal Water Temperatures

Place Temperature

Stations

Nearby Weather Stations

Station Location Temp. Windchill Dew Point Humidity Wind Precip. Elev Updated Type
                   

Watches & Warnings

There are currently no watches in effect.